Time;durP1;ratioP1;P1;durP2;ratioP2;P2;SDS_P1;SDS_P2;PMS_P1;PMS_P2;Temp;Humidity;BMP_temperature;BMP_pressure;BME280_temperature;BME280_humidity;BME280_pressure;Samples;Min_cycle;Max_cycle;Signal;HPM_P1;HPM_P2
2023/04/16 00:00:09;;;;;;;38.73;18.70;;;;;;;;;;5032748;28;20474;-46
2023/04/16 00:02:34;;;;;;;37.20;20.37;;;;;;;;;;5030440;28;20779;-46
2023/04/16 00:05:00;;;;;;;31.37;17.27;;;;;;;;;;5032808;28;20426;-44
2023/04/16 00:07:26;;;;;;;32.50;18.00;;;;;;;;;;5032888;28;20411;-45
2023/04/16 00:09:52;;;;;;;27.80;16.93;;;;;;;;;;5035189;28;20438;-45
2023/04/16 00:12:18;;;;;;;33.27;17.27;;;;;;;;;;5030339;28;20458;-45
2023/04/16 00:14:44;;;;;;;35.10;18.57;;;;;;;;;;5033413;28;20841;-44
2023/04/16 00:17:10;;;;;;;46.67;19.40;;;;;;;;;;5031297;28;20890;-44
2023/04/16 00:19:36;;;;;;;33.73;19.23;;;;;;;;;;5032692;28;20829;-44
2023/04/16 00:22:02;;;;;;;39.10;18.90;;;;;;;;;;5031713;28;20437;-45
2023/04/16 00:24:28;;;;;;;34.30;17.00;;;;;;;;;;5032430;28;20447;-44
2023/04/16 00:26:54;;;;;;;36.00;19.30;;;;;;;;;;5032488;28;20420;-44
2023/04/16 00:29:20;;;;;;;41.80;19.53;;;;;;;;;;5033084;28;20458;-46
2023/04/16 00:31:46;;;;;;;41.93;19.70;;;;;;;;;;5032261;28;20438;-45
2023/04/16 00:34:12;;;;;;;56.53;19.17;;;;;;;;;;5030332;28;20435;-45
2023/04/16 00:36:38;;;;;;;38.43;19.10;;;;;;;;;;5032295;28;20458;-46
2023/04/16 00:39:04;;;;;;;33.27;18.37;;;;;;;;;;5032651;28;20798;-44
2023/04/16 00:41:30;;;;;;;31.53;17.70;;;;;;;;;;5029251;28;20884;-45
2023/04/16 00:43:56;;;;;;;32.53;18.37;;;;;;;;;;5025253;28;20894;-44
2023/04/16 00:46:23;;;;;;;32.33;18.30;;;;;;;;;;5032324;28;20830;-47
2023/04/16 00:48:50;;;;;;;31.77;17.90;;;;;;;;;;5032972;28;20495;-45
2023/04/16 00:51:20;;;;;;;37.03;18.90;;;;;;;;;;5032286;28;20502;-45
2023/04/16 00:53:46;;;;;;;33.40;18.90;;;;;;;;;;5027922;28;20439;-45
2023/04/16 00:56:12;;;;;;;36.97;18.30;;;;;;;;;;5031883;28;20823;-45
2023/04/16 00:58:39;;;;;;;41.20;20.50;;;;;;;;;;5034640;28;20410;-46
2023/04/16 01:01:05;;;;;;;34.43;18.63;;;;;;;;;;5034968;28;20423;-45
2023/04/16 01:03:37;;;;;;;37.47;18.53;;;;;;;;;;5034798;28;20466;-47
2023/04/16 01:06:03;;;;;;;40.30;19.80;;;;;;;;;;5035612;28;20480;-44
2023/04/16 01:08:29;;;;;;;35.43;18.40;;;;;;;;;;5035156;28;20427;-45
2023/04/16 01:10:55;;;;;;;34.43;18.73;;;;;;;;;;5035900;28;20436;-46
2023/04/16 01:13:21;;;;;;;45.87;20.90;;;;;;;;;;5039582;28;20814;-46
2023/04/16 01:15:47;;;;;;;34.97;18.23;;;;;;;;;;5035425;28;20459;-45
2023/04/16 01:18:17;;;;;;;44.87;18.83;;;;;;;;;;5035811;28;20897;-44
2023/04/16 01:20:43;;;;;;;38.60;16.27;;;;;;;;;;5035906;28;20547;-46
2023/04/16 01:23:10;;;;;;;37.37;18.80;;;;;;;;;;5034894;28;20790;-46
2023/04/16 01:25:36;;;;;;;36.50;19.77;;;;;;;;;;5036056;28;20404;-45
2023/04/16 01:28:02;;;;;;;33.10;18.40;;;;;;;;;;5035210;28;20482;-45
2023/04/16 01:30:28;;;;;;;34.90;17.03;;;;;;;;;;5033364;28;20435;-45
2023/04/16 01:32:54;;;;;;;33.23;16.60;;;;;;;;;;5035134;28;20796;-44
2023/04/16 01:35:20;;;;;;;39.80;19.07;;;;;;;;;;5035545;28;20411;-44
2023/04/16 01:37:46;;;;;;;36.43;18.70;;;;;;;;;;5035548;28;20989;-44
2023/04/16 01:40:12;;;;;;;39.90;17.90;;;;;;;;;;5034089;28;20472;-46
2023/04/16 01:42:38;;;;;;;34.67;19.20;;;;;;;;;;5039324;28;20485;-46
2023/04/16 01:45:04;;;;;;;40.50;20.00;;;;;;;;;;5037247;28;20423;-46
2023/04/16 01:47:30;;;;;;;39.00;20.33;;;;;;;;;;5035379;28;20570;-46
2023/04/16 01:49:56;;;;;;;40.13;18.47;;;;;;;;;;5035381;28;20469;-46
2023/04/16 01:52:22;;;;;;;38.37;18.23;;;;;;;;;;5034483;28;20858;-46
2023/04/16 01:54:48;;;;;;;38.47;19.20;;;;;;;;;;5035212;28;20406;-46
2023/04/16 01:57:14;;;;;;;36.93;18.47;;;;;;;;;;5034320;28;20965;-45
2023/04/16 01:59:40;;;;;;;38.70;19.47;;;;;;;;;;5035116;28;20458;-46
2023/04/16 02:02:10;;;;;;;38.77;19.83;;;;;;;;;;5033984;28;20469;-46
2023/04/16 02:04:44;;;;;;;48.70;21.90;;;;;;;;;;5034479;28;20432;-45
2023/04/16 02:07:10;;;;;;;41.60;23.20;;;;;;;;;;5034946;28;20844;-46
2023/04/16 02:09:37;;;;;;;40.50;20.53;;;;;;;;;;5037007;28;20434;-47
2023/04/16 02:12:03;;;;;;;38.33;20.20;;;;;;;;;;5034113;28;20954;-44
2023/04/16 02:14:29;;;;;;;40.03;19.67;;;;;;;;;;5040216;28;20520;-46
2023/04/16 02:16:55;;;;;;;37.13;17.70;;;;;;;;;;5031754;28;20841;-44
2023/04/16 02:19:21;;;;;;;34.40;19.10;;;;;;;;;;5034783;28;20415;-46
2023/04/16 02:21:48;;;;;;;40.50;20.80;;;;;;;;;;5033845;28;20478;-45
2023/04/16 02:24:14;;;;;;;38.90;20.57;;;;;;;;;;5034192;28;20444;-45
2023/04/16 02:26:40;;;;;;;34.60;17.93;;;;;;;;;;5033906;28;20416;-45
2023/04/16 02:29:06;;;;;;;36.37;20.67;;;;;;;;;;5030349;28;20773;-45
2023/04/16 02:31:32;;;;;;;36.77;18.40;;;;;;;;;;5033652;28;20416;-45
2023/04/16 02:33:58;;;;;;;41.60;18.97;;;;;;;;;;5034223;28;20418;-45
2023/04/16 02:36:24;;;;;;;39.73;19.87;;;;;;;;;;5033853;28;20454;-45
2023/04/16 02:38:50;;;;;;;41.70;20.00;;;;;;;;;;5033687;28;20430;-46
2023/04/16 02:41:16;;;;;;;44.63;18.97;;;;;;;;;;5029998;28;20427;-45
2023/04/16 02:43:42;;;;;;;40.00;20.30;;;;;;;;;;5033736;28;20468;-45
2023/04/16 02:46:08;;;;;;;45.73;21.10;;;;;;;;;;5033650;28;20420;-46
2023/04/16 02:48:35;;;;;;;38.13;20.50;;;;;;;;;;5033547;28;20784;-45
2023/04/16 02:51:01;;;;;;;39.97;20.17;;;;;;;;;;5033003;28;20406;-46
2023/04/16 02:53:27;;;;;;;47.47;21.90;;;;;;;;;;5032923;28;20478;-46
2023/04/16 02:55:53;;;;;;;43.40;20.40;;;;;;;;;;5033432;28;20863;-45
2023/04/16 02:58:20;;;;;;;42.90;21.83;;;;;;;;;;5029026;28;20408;-45
2023/04/16 03:00:46;;;;;;;37.23;20.30;;;;;;;;;;5034351;28;20402;-46
2023/04/16 03:03:12;;;;;;;39.27;19.77;;;;;;;;;;5032862;28;20511;-45
2023/04/16 03:05:37;;;;;;;34.60;19.87;;;;;;;;;;5033002;28;20891;-46
2023/04/16 03:08:04;;;;;;;42.53;21.87;;;;;;;;;;5033142;28;20417;-46
2023/04/16 03:10:31;;;;;;;37.87;21.63;;;;;;;;;;5035186;28;20420;-46
2023/04/16 03:12:57;;;;;;;36.73;20.10;;;;;;;;;;5029466;28;20443;-44
2023/04/16 03:15:24;;;;;;;43.47;22.10;;;;;;;;;;5027985;28;20922;-45
2023/04/16 03:17:50;;;;;;;36.50;19.37;;;;;;;;;;5033198;28;20476;-44
2023/04/16 03:20:16;;;;;;;41.37;19.67;;;;;;;;;;5033114;28;20421;-44
2023/04/16 03:22:48;;;;;;;34.80;20.57;;;;;;;;;;5032580;28;20834;-44
2023/04/16 03:25:14;;;;;;;39.00;19.87;;;;;;;;;;5031839;28;20429;-43
2023/04/16 03:27:41;;;;;;;45.03;22.20;;;;;;;;;;5031847;28;20810;-43
2023/04/16 03:30:07;;;;;;;34.67;18.87;;;;;;;;;;5031978;28;20830;-43
2023/04/16 03:32:33;;;;;;;43.23;20.93;;;;;;;;;;5031301;28;20485;-43
2023/04/16 03:34:59;;;;;;;39.57;19.47;;;;;;;;;;5031632;28;20427;-43
2023/04/16 03:37:25;;;;;;;40.03;20.37;;;;;;;;;;5031853;28;20467;-44
2023/04/16 03:39:51;;;;;;;36.07;19.37;;;;;;;;;;5031679;28;20425;-43
2023/04/16 03:42:17;;;;;;;43.77;20.50;;;;;;;;;;5032002;28;20485;-44
2023/04/16 03:44:43;;;;;;;32.93;21.27;;;;;;;;;;5034708;28;20428;-44
2023/04/16 03:47:09;;;;;;;35.50;19.53;;;;;;;;;;5031356;28;20449;-44
2023/04/16 03:49:35;;;;;;;39.83;19.67;;;;;;;;;;5031768;28;20405;-43
2023/04/16 03:52:01;;;;;;;31.87;18.63;;;;;;;;;;5030809;28;20525;-43
2023/04/16 03:54:27;;;;;;;37.83;20.93;;;;;;;;;;5031560;28;20503;-43
2023/04/16 03:56:53;;;;;;;43.73;20.43;;;;;;;;;;5028036;28;20577;-43
2023/04/16 03:59:19;;;;;;;38.73;19.20;;;;;;;;;;5031660;28;20409;-43
2023/04/16 04:01:45;;;;;;;36.30;20.00;;;;;;;;;;5030857;28;20410;-43
2023/04/16 04:04:11;;;;;;;34.73;19.97;;;;;;;;;;5031602;28;20495;-43
2023/04/16 04:06:37;;;;;;;36.23;19.77;;;;;;;;;;5031417;28;20408;-44
2023/04/16 04:09:03;;;;;;;37.87;20.73;;;;;;;;;;5031466;28;20411;-43
2023/04/16 04:11:29;;;;;;;44.13;20.90;;;;;;;;;;5032389;28;20434;-44
2023/04/16 04:13:55;;;;;;;39.73;20.50;;;;;;;;;;5034305;28;20416;-45
2023/04/16 04:16:21;;;;;;;55.63;24.03;;;;;;;;;;5037842;28;20472;-43
2023/04/16 04:18:47;;;;;;;39.13;21.23;;;;;;;;;;5031508;28;20417;-44
2023/04/16 04:21:13;;;;;;;38.00;21.20;;;;;;;;;;5031139;28;20459;-43
2023/04/16 04:23:40;;;;;;;46.30;21.37;;;;;;;;;;5030702;28;20947;-43
2023/04/16 04:26:06;;;;;;;47.47;22.57;;;;;;;;;;5031208;28;20417;-44
2023/04/16 04:28:32;;;;;;;45.73;23.87;;;;;;;;;;5031547;28;20807;-43
2023/04/16 04:30:58;;;;;;;47.60;23.30;;;;;;;;;;5031321;28;20808;-43
2023/04/16 04:33:27;;;;;;;52.43;25.93;;;;;;;;;;5032107;28;20431;-43
2023/04/16 04:35:54;;;;;;;53.97;23.07;;;;;;;;;;5035057;28;20475;-45
2023/04/16 04:38:24;;;;;;;47.33;22.13;;;;;;;;;;5035149;28;20416;-43
2023/04/16 04:40:49;;;;;;;46.00;21.80;;;;;;;;;;5033759;28;20428;-44
2023/04/16 04:43:15;;;;;;;44.47;21.80;;;;;;;;;;5031778;28;20539;-44
2023/04/16 04:45:41;;;;;;;44.60;22.77;;;;;;;;;;5029824;28;20395;-44
2023/04/16 04:48:07;;;;;;;57.20;24.67;;;;;;;;;;5033387;28;20491;-43
2023/04/16 04:50:33;;;;;;;48.80;22.80;;;;;;;;;;5034801;28;20907;-43
2023/04/16 04:52:59;;;;;;;53.03;24.90;;;;;;;;;;5034052;28;20463;-43
2023/04/16 04:55:25;;;;;;;55.13;23.63;;;;;;;;;;5034694;28;20437;-43
2023/04/16 04:57:51;;;;;;;48.80;23.57;;;;;;;;;;5026980;28;20469;-42
2023/04/16 05:00:17;;;;;;;47.40;22.43;;;;;;;;;;5032972;28;20412;-43
2023/04/16 05:02:43;;;;;;;55.00;24.37;;;;;;;;;;5028653;28;20452;-45
2023/04/16 05:05:09;;;;;;;59.77;25.30;;;;;;;;;;5034180;28;20423;-44
2023/04/16 05:07:35;;;;;;;48.07;23.20;;;;;;;;;;5034602;28;20464;-44
2023/04/16 05:10:01;;;;;;;51.90;22.87;;;;;;;;;;5032007;28;20411;-44
2023/04/16 05:12:27;;;;;;;45.93;22.90;;;;;;;;;;5030875;28;20474;-43
2023/04/16 05:14:53;;;;;;;55.30;24.33;;;;;;;;;;5035662;28;20435;-43
2023/04/16 05:17:19;;;;;;;46.50;22.97;;;;;;;;;;5034294;28;20896;-43
2023/04/16 05:19:45;;;;;;;56.53;23.90;;;;;;;;;;5034067;28;20461;-43
2023/04/16 05:22:11;;;;;;;52.97;25.03;;;;;;;;;;5031079;28;20798;-43
2023/04/16 05:24:37;;;;;;;47.23;23.13;;;;;;;;;;5034236;28;20402;-43
2023/04/16 05:27:03;;;;;;;47.20;24.17;;;;;;;;;;5034225;28;20400;-43
2023/04/16 05:29:29;;;;;;;49.50;24.13;;;;;;;;;;5034157;28;20412;-44
2023/04/16 05:31:56;;;;;;;51.33;23.23;;;;;;;;;;5033971;28;20454;-43
2023/04/16 05:34:22;;;;;;;57.67;26.70;;;;;;;;;;5033853;28;20428;-43
2023/04/16 05:36:48;;;;;;;51.27;26.43;;;;;;;;;;5032014;28;20983;-43
2023/04/16 05:39:14;;;;;;;46.93;23.90;;;;;;;;;;5030145;28;20924;-44
2023/04/16 05:41:40;;;;;;;47.47;23.80;;;;;;;;;;5033064;28;20772;-43
2023/04/16 05:44:06;;;;;;;49.03;22.20;;;;;;;;;;5033003;28;20405;-43
2023/04/16 05:46:32;;;;;;;50.90;24.60;;;;;;;;;;5033330;28;20417;-43
2023/04/16 05:48:58;;;;;;;51.43;24.77;;;;;;;;;;5032337;28;20410;-44
2023/04/16 05:51:26;;;;;;;51.27;24.17;;;;;;;;;;5031076;28;20435;-44
2023/04/16 05:53:52;;;;;;;48.47;24.80;;;;;;;;;;5034087;28;20421;-46
2023/04/16 05:56:18;;;;;;;53.97;25.20;;;;;;;;;;5033935;28;20453;-44
2023/04/16 05:58:44;;;;;;;40.70;21.37;;;;;;;;;;5033899;28;20435;-44
2023/04/16 06:01:10;;;;;;;54.90;26.07;;;;;;;;;;5033965;28;20401;-46
2023/04/16 06:03:36;;;;;;;49.53;23.17;;;;;;;;;;5031698;28;20453;-45
2023/04/16 06:06:02;;;;;;;45.57;22.57;;;;;;;;;;5034091;28;20496;-45
2023/04/16 06:08:28;;;;;;;44.67;24.43;;;;;;;;;;5030763;28;20414;-45
2023/04/16 06:10:55;;;;;;;53.67;25.37;;;;;;;;;;5033365;28;20425;-45
2023/04/16 06:13:21;;;;;;;46.97;25.07;;;;;;;;;;5032421;28;20455;-44
2023/04/16 06:15:47;;;;;;;45.10;23.43;;;;;;;;;;5033186;28;20807;-45
2023/04/16 06:18:13;;;;;;;42.50;23.17;;;;;;;;;;5031994;28;20411;-45
2023/04/16 06:20:39;;;;;;;45.87;24.67;;;;;;;;;;5033180;28;20764;-44
2023/04/16 06:23:05;;;;;;;48.23;24.30;;;;;;;;;;5032544;28;20425;-44
2023/04/16 06:25:31;;;;;;;47.93;23.57;;;;;;;;;;5033103;28;20817;-45
2023/04/16 06:27:57;;;;;;;48.17;24.73;;;;;;;;;;5027142;28;20418;-45
2023/04/16 06:30:23;;;;;;;47.47;24.83;;;;;;;;;;5032945;28;20415;-44
2023/04/16 06:32:49;;;;;;;52.30;25.50;;;;;;;;;;5034444;28;20987;-44
2023/04/16 06:35:15;;;;;;;46.70;24.07;;;;;;;;;;5029452;28;20421;-45
2023/04/16 06:37:41;;;;;;;47.87;24.00;;;;;;;;;;5036626;28;20465;-45
2023/04/16 06:40:07;;;;;;;57.37;25.33;;;;;;;;;;5032820;28;20503;-45
2023/04/16 06:42:33;;;;;;;47.27;25.13;;;;;;;;;;5031830;28;20441;-44
2023/04/16 06:44:59;;;;;;;48.73;24.70;;;;;;;;;;5032659;28;20427;-46
2023/04/16 06:47:25;;;;;;;41.97;23.67;;;;;;;;;;5031801;28;20459;-45
2023/04/16 06:49:51;;;;;;;42.10;24.30;;;;;;;;;;5032671;28;20425;-45
2023/04/16 06:52:17;;;;;;;50.40;24.20;;;;;;;;;;5031697;28;20452;-45
2023/04/16 06:54:43;;;;;;;52.40;26.17;;;;;;;;;;5032535;28;20516;-45
2023/04/16 06:57:10;;;;;;;48.07;24.80;;;;;;;;;;5032119;28;20464;-44
2023/04/16 06:59:36;;;;;;;45.50;26.00;;;;;;;;;;5032485;28;20403;-45
2023/04/16 07:02:02;;;;;;;49.03;25.50;;;;;;;;;;5030702;28;20430;-45
2023/04/16 07:04:28;;;;;;;51.27;27.37;;;;;;;;;;5037416;28;20433;-45
2023/04/16 07:06:53;;;;;;;41.87;22.30;;;;;;;;;;5030468;28;20414;-44
2023/04/16 07:09:19;;;;;;;55.10;24.60;;;;;;;;;;5032211;28;20410;-45
2023/04/16 07:11:46;;;;;;;39.60;23.53;;;;;;;;;;5031451;28;20948;-45
2023/04/16 07:14:12;;;;;;;43.03;23.07;;;;;;;;;;5032009;28;20409;-45
2023/04/16 07:16:38;;;;;;;40.17;22.57;;;;;;;;;;5032325;28;20638;-45
2023/04/16 07:19:04;;;;;;;40.00;23.07;;;;;;;;;;5032120;28;20942;-45
2023/04/16 07:21:30;;;;;;;36.73;22.73;;;;;;;;;;5029777;28;20415;-45
2023/04/16 07:23:56;;;;;;;47.10;22.20;;;;;;;;;;5030101;28;20503;-45
2023/04/16 07:26:22;;;;;;;40.67;22.50;;;;;;;;;;5030722;28;20472;-44
2023/04/16 07:28:48;;;;;;;40.07;22.60;;;;;;;;;;5030937;28;20418;-45
2023/04/16 07:31:14;;;;;;;39.30;22.93;;;;;;;;;;5031701;28;20462;-44
2023/04/16 07:33:40;;;;;;;41.23;23.30;;;;;;;;;;5030431;28;20510;-45
2023/04/16 07:36:06;;;;;;;46.03;23.77;;;;;;;;;;5034966;28;20894;-45
2023/04/16 07:38:33;;;;;;;40.57;23.57;;;;;;;;;;5028726;28;20421;-44
2023/04/16 07:40:59;;;;;;;38.43;23.53;;;;;;;;;;5031156;28;20422;-45
2023/04/16 07:43:25;;;;;;;40.40;21.57;;;;;;;;;;5026625;28;20450;-45
2023/04/16 07:45:51;;;;;;;40.33;23.17;;;;;;;;;;5031672;28;21164;-45
2023/04/16 07:48:17;;;;;;;38.57;21.50;;;;;;;;;;5029272;28;20410;-44
2023/04/16 07:50:43;;;;;;;41.83;23.60;;;;;;;;;;5028015;28;20405;-45
2023/04/16 07:53:09;;;;;;;40.10;22.07;;;;;;;;;;5030771;28;20785;-46
2023/04/16 07:55:35;;;;;;;42.83;23.53;;;;;;;;;;5031645;28;20410;-45
2023/04/16 07:58:01;;;;;;;37.03;21.20;;;;;;;;;;5030802;28;20832;-45
2023/04/16 08:00:28;;;;;;;38.47;22.27;;;;;;;;;;5029872;28;20423;-45
2023/04/16 08:02:54;;;;;;;42.10;23.57;;;;;;;;;;5031745;28;20463;-45
2023/04/16 08:05:19;;;;;;;40.30;23.90;;;;;;;;;;5031774;28;20934;-44
2023/04/16 08:07:45;;;;;;;36.23;22.00;;;;;;;;;;5035062;28;20516;-45
2023/04/16 08:10:12;;;;;;;31.33;21.47;;;;;;;;;;5035659;28;20417;-44
2023/04/16 08:12:38;;;;;;;37.17;19.57;;;;;;;;;;5035280;28;20440;-45
2023/04/16 08:15:04;;;;;;;32.47;22.70;;;;;;;;;;5035502;28;20451;-45
2023/04/16 08:17:30;;;;;;;35.73;20.30;;;;;;;;;;5034046;28;20516;-46
2023/04/16 08:19:56;;;;;;;35.43;21.07;;;;;;;;;;5032301;28;20422;-44
2023/04/16 08:22:22;;;;;;;31.70;19.80;;;;;;;;;;5034644;28;20429;-45
2023/04/16 08:24:48;;;;;;;34.37;21.90;;;;;;;;;;5035425;28;20442;-45
2023/04/16 08:27:15;;;;;;;34.03;20.87;;;;;;;;;;5035206;28;20415;-46
2023/04/16 08:29:40;;;;;;;35.37;20.97;;;;;;;;;;5035366;28;20405;-45
2023/04/16 08:32:08;;;;;;;33.43;20.30;;;;;;;;;;5033058;28;20434;-45
2023/04/16 08:34:34;;;;;;;37.30;22.70;;;;;;;;;;5035110;28;20921;-45
2023/04/16 08:37:00;;;;;;;38.67;21.23;;;;;;;;;;5037381;28;20465;-45
2023/04/16 08:39:26;;;;;;;30.90;20.50;;;;;;;;;;5037345;28;20836;-45
2023/04/16 08:41:53;;;;;;;40.70;20.70;;;;;;;;;;5034095;28;20518;-44
2023/04/16 08:44:20;;;;;;;32.50;21.37;;;;;;;;;;5033938;28;20410;-45
2023/04/16 08:46:47;;;;;;;31.00;20.13;;;;;;;;;;5034961;28;20409;-45
2023/04/16 08:49:17;;;;;;;32.03;20.27;;;;;;;;;;5034884;28;20434;-45
2023/04/16 08:51:44;;;;;;;28.13;18.23;;;;;;;;;;5032249;28;20513;-45
2023/04/16 08:54:13;;;;;;;31.03;20.50;;;;;;;;;;5034175;28;20432;-44
2023/04/16 08:56:41;;;;;;;32.53;19.43;;;;;;;;;;5034574;28;20970;-45
2023/04/16 08:59:08;;;;;;;33.33;20.50;;;;;;;;;;5037468;28;20426;-43
2023/04/16 09:01:35;;;;;;;30.97;20.50;;;;;;;;;;5035375;28;20403;-44
2023/04/16 09:04:02;;;;;;;35.40;21.53;;;;;;;;;;5035024;28;20418;-45
2023/04/16 09:06:28;;;;;;;33.83;20.67;;;;;;;;;;5038893;28;20869;-45
2023/04/16 09:08:54;;;;;;;29.30;20.27;;;;;;;;;;5034075;28;20422;-45
2023/04/16 09:11:20;;;;;;;31.30;18.10;;;;;;;;;;5031898;28;20454;-44
2023/04/16 09:13:47;;;;;;;31.13;19.70;;;;;;;;;;5035145;28;20520;-45
2023/04/16 09:16:14;;;;;;;28.80;19.40;;;;;;;;;;5034929;28;20462;-45
2023/04/16 09:18:40;;;;;;;30.23;19.90;;;;;;;;;;5034092;28;20412;-45
2023/04/16 09:21:08;;;;;;;29.50;18.70;;;;;;;;;;5039338;28;20952;-45
2023/04/16 09:23:34;;;;;;;29.20;20.20;;;;;;;;;;5033497;28;20437;-45
2023/04/16 09:26:00;;;;;;;36.60;21.90;;;;;;;;;;5034095;28;20503;-44
2023/04/16 09:28:39;;;;;;;29.27;18.97;;;;;;;;;;5034075;28;20494;-44
2023/04/16 09:31:08;;;;;;;30.60;20.50;;;;;;;;;;5034118;28;20446;-44
2023/04/16 09:33:35;;;;;;;28.73;18.00;;;;;;;;;;5034488;28;20435;-46
2023/04/16 09:36:01;;;;;;;32.70;20.50;;;;;;;;;;5033807;28;20440;-45
2023/04/16 09:38:44;;;;;;;32.43;21.13;;;;;;;;;;5033952;28;20412;-45
2023/04/16 09:41:10;;;;;;;29.87;20.20;;;;;;;;;;5032859;28;20446;-45
2023/04/16 09:43:37;;;;;;;30.43;19.10;;;;;;;;;;5031434;28;20528;-44
2023/04/16 09:46:03;;;;;;;30.50;19.87;;;;;;;;;;5033767;28;20422;-45
2023/04/16 09:48:30;;;;;;;31.77;20.50;;;;;;;;;;5033682;28;20416;-44
2023/04/16 09:50:57;;;;;;;36.30;19.60;;;;;;;;;;5033829;28;20441;-46
2023/04/16 09:53:24;;;;;;;32.30;21.23;;;;;;;;;;5025887;28;20841;-45
2023/04/16 09:55:50;;;;;;;33.80;20.43;;;;;;;;;;5032563;28;20830;-45
2023/04/16 09:58:18;;;;;;;34.90;20.50;;;;;;;;;;5030803;28;20449;-45
2023/04/16 10:00:45;;;;;;;33.20;20.30;;;;;;;;;;5033612;28;20416;-45
2023/04/16 10:03:11;;;;;;;31.80;21.37;;;;;;;;;;5032525;28;20446;-45
2023/04/16 10:05:37;;;;;;;29.30;20.47;;;;;;;;;;5033460;28;20778;-46
2023/04/16 10:08:10;;;;;;;27.70;19.53;;;;;;;;;;5037136;28;20513;-45
2023/04/16 10:10:36;;;;;;;28.60;19.27;;;;;;;;;;5039455;28;20489;-45
2023/04/16 10:13:02;;;;;;;30.93;19.30;;;;;;;;;;5029987;28;20458;-45
2023/04/16 10:15:28;;;;;;;31.20;21.40;;;;;;;;;;5030789;28;20426;-45
2023/04/16 10:17:55;;;;;;;30.43;20.00;;;;;;;;;;5032965;28;20471;-44
2023/04/16 10:20:22;;;;;;;28.13;19.63;;;;;;;;;;5033228;28;20408;-45
2023/04/16 10:22:48;;;;;;;31.37;21.00;;;;;;;;;;5032175;28;20858;-46
2023/04/16 10:25:14;;;;;;;34.07;19.33;;;;;;;;;;5032889;28;20422;-44
2023/04/16 10:27:40;;;;;;;27.43;18.67;;;;;;;;;;5032898;28;20427;-45
2023/04/16 10:30:07;;;;;;;28.03;19.13;;;;;;;;;;5032567;28;20438;-45
2023/04/16 10:32:34;;;;;;;25.03;17.43;;;;;;;;;;5031535;28;20939;-45
2023/04/16 10:35:00;;;;;;;25.50;17.40;;;;;;;;;;5032895;28;20425;-45
2023/04/16 10:37:30;;;;;;;25.50;18.57;;;;;;;;;;5030646;28;20568;-46
2023/04/16 10:39:56;;;;;;;24.20;16.77;;;;;;;;;;5043281;28;20431;-46
2023/04/16 10:42:22;;;;;;;25.20;18.90;;;;;;;;;;5012345;28;20422;-46
2023/04/16 10:44:48;;;;;;;27.03;17.53;;;;;;;;;;5012807;28;20418;-45
2023/04/16 10:47:14;;;;;;;26.20;17.53;;;;;;;;;;5012850;28;20410;-46
2023/04/16 10:49:41;;;;;;;23.00;16.77;;;;;;;;;;5012859;28;20775;-46
2023/04/16 10:52:10;;;;;;;26.20;17.67;;;;;;;;;;5011979;28;20435;-47
2023/04/16 10:54:37;;;;;;;21.73;15.87;;;;;;;;;;5012773;28;20930;-45
2023/04/16 10:57:04;;;;;;;24.00;17.07;;;;;;;;;;5012682;28;20454;-46
2023/04/16 10:59:32;;;;;;;24.60;16.50;;;;;;;;;;5017398;28;20410;-46
2023/04/16 11:02:02;;;;;;;23.70;17.83;;;;;;;;;;5031614;28;20526;-46
2023/04/16 11:04:31;;;;;;;24.67;18.53;;;;;;;;;;5032529;28;20414;-46
2023/04/16 11:07:12;;;;;;;26.17;17.27;;;;;;;;;;5031565;28;20410;-46
2023/04/16 11:10:04;;;;;;;20.80;16.23;;;;;;;;;;5032186;28;20398;-46
2023/04/16 11:12:36;;;;;;;24.50;18.00;;;;;;;;;;5025084;28;20956;-45
2023/04/16 11:15:02;;;;;;;24.73;16.40;;;;;;;;;;5018430;28;20443;-46
2023/04/16 11:17:30;;;;;;;25.00;17.80;;;;;;;;;;5012373;28;20433;-46
2023/04/16 11:19:56;;;;;;;23.90;14.93;;;;;;;;;;5020040;28;20389;-47
2023/04/16 11:22:22;;;;;;;21.10;15.37;;;;;;;;;;5031176;28;20993;-46
2023/04/16 11:24:53;;;;;;;18.77;14.73;;;;;;;;;;5031999;28;20391;-45
2023/04/16 11:27:19;;;;;;;22.83;16.27;;;;;;;;;;5032420;28;20414;-46
2023/04/16 11:29:45;;;;;;;18.50;15.13;;;;;;;;;;5031861;28;20425;-46
2023/04/16 11:32:20;;;;;;;19.40;14.70;;;;;;;;;;5030935;28;20442;-46
2023/04/16 11:34:46;;;;;;;18.30;14.80;;;;;;;;;;5031717;28;20412;-46
2023/04/16 11:37:12;;;;;;;21.33;15.60;;;;;;;;;;5036752;28;20471;-46
2023/04/16 11:39:49;;;;;;;20.30;14.43;;;;;;;;;;5034928;28;20409;-46
2023/04/16 11:42:20;;;;;;;18.00;13.80;;;;;;;;;;5010417;28;20442;-45
2023/04/16 11:44:46;;;;;;;21.43;15.27;;;;;;;;;;5012002;28;20774;-45
2023/04/16 11:47:12;;;;;;;20.00;15.67;;;;;;;;;;5013488;28;20737;-45
2023/04/16 11:49:38;;;;;;;18.70;14.50;;;;;;;;;;5031716;28;20413;-46
2023/04/16 11:52:04;;;;;;;19.00;14.37;;;;;;;;;;5030688;28;20526;-47
2023/04/16 11:54:33;;;;;;;16.93;13.33;;;;;;;;;;5031488;28;20430;-46
2023/04/16 11:57:00;;;;;;;20.43;14.50;;;;;;;;;;5031475;28;20448;-45
2023/04/16 11:59:26;;;;;;;18.53;14.90;;;;;;;;;;5030293;28;20481;-47
2023/04/16 12:01:56;;;;;;;19.80;14.10;;;;;;;;;;5030497;28;20516;-45
2023/04/16 12:04:23;;;;;;;20.33;15.17;;;;;;;;;;5031563;28;20405;-45
2023/04/16 12:07:08;;;;;;;23.23;15.37;;;;;;;;;;5030651;28;20932;-46
2023/04/16 12:09:35;;;;;;;21.30;14.50;;;;;;;;;;5026515;28;20751;-45
2023/04/16 12:12:01;;;;;;;16.00;14.00;;;;;;;;;;5030525;28;20516;-46
2023/04/16 12:14:27;;;;;;;24.73;15.63;;;;;;;;;;5030180;28;20427;-45
2023/04/16 12:16:53;;;;;;;19.53;15.10;;;;;;;;;;5031395;28;20452;-46
2023/04/16 12:19:19;;;;;;;19.53;15.17;;;;;;;;;;5031484;28;20415;-45
2023/04/16 12:21:46;;;;;;;19.47;15.00;;;;;;;;;;5030686;28;20475;-47
2023/04/16 12:24:13;;;;;;;22.20;14.70;;;;;;;;;;5028702;28;20457;-45
2023/04/16 12:26:43;;;;;;;22.93;16.90;;;;;;;;;;5016186;28;20430;-44
2023/04/16 12:29:15;;;;;;;20.77;14.57;;;;;;;;;;5011761;28;20526;-44
2023/04/16 12:31:42;;;;;;;21.20;15.10;;;;;;;;;;5010723;28;20474;-45
2023/04/16 12:34:09;;;;;;;22.00;15.40;;;;;;;;;;5017549;28;20778;-46
2023/04/16 12:36:35;;;;;;;25.53;16.60;;;;;;;;;;5031153;28;20550;-46
2023/04/16 12:39:02;;;;;;;23.03;16.40;;;;;;;;;;5030490;28;20987;-45
2023/04/16 12:41:28;;;;;;;20.10;14.87;;;;;;;;;;5010695;28;20485;-45
2023/04/16 12:44:02;;;;;;;20.30;15.33;;;;;;;;;;5011258;28;20506;-45
2023/04/16 12:46:28;;;;;;;23.80;15.67;;;;;;;;;;5011444;28;20417;-45
2023/04/16 12:48:56;;;;;;;21.00;14.40;;;;;;;;;;5011354;28;20430;-46
2023/04/16 12:51:22;;;;;;;21.20;16.47;;;;;;;;;;5010749;28;20481;-46
2023/04/16 12:53:48;;;;;;;22.90;16.50;;;;;;;;;;5011494;28;20934;-45
2023/04/16 12:56:15;;;;;;;22.63;15.63;;;;;;;;;;5029356;28;20473;-45
2023/04/16 12:58:41;;;;;;;18.07;14.60;;;;;;;;;;5034745;28;20400;-46
2023/04/16 13:01:07;;;;;;;18.73;14.70;;;;;;;;;;5034758;28;20406;-46
2023/04/16 13:03:35;;;;;;;22.43;14.13;;;;;;;;;;5033935;28;20434;-46
2023/04/16 13:06:01;;;;;;;18.43;14.33;;;;;;;;;;5034356;28;20418;-46
2023/04/16 13:08:28;;;;;;;18.23;14.90;;;;;;;;;;5036204;28;20428;-46
2023/04/16 13:10:54;;;;;;;20.40;14.53;;;;;;;;;;5035915;28;20896;-45
2023/04/16 13:13:20;;;;;;;20.17;13.87;;;;;;;;;;5033693;28;20436;-47
2023/04/16 13:15:46;;;;;;;20.93;14.70;;;;;;;;;;5034407;28;20791;-47
2023/04/16 13:18:12;;;;;;;22.80;15.60;;;;;;;;;;5034335;28;20453;-45
2023/04/16 13:20:38;;;;;;;20.60;14.63;;;;;;;;;;5034525;28;20430;-46
2023/04/16 13:23:04;;;;;;;17.03;14.10;;;;;;;;;;5031787;28;20442;-45
2023/04/16 13:25:31;;;;;;;22.20;17.17;;;;;;;;;;5032324;28;20410;-45
2023/04/16 13:27:57;;;;;;;18.53;13.80;;;;;;;;;;5032937;28;20863;-46
2023/04/16 13:30:23;;;;;;;21.07;14.40;;;;;;;;;;5033686;28;20425;-47
2023/04/16 13:32:48;;;;;;;19.20;14.30;;;;;;;;;;5032377;28;20407;-46
2023/04/16 13:35:14;;;;;;;19.83;14.70;;;;;;;;;;5034218;28;20400;-45
2023/04/16 13:37:40;;;;;;;15.70;12.90;;;;;;;;;;5037722;28;20436;-45
2023/04/16 13:40:07;;;;;;;23.83;15.10;;;;;;;;;;5034236;28;20405;-47
2023/04/16 13:42:33;;;;;;;19.57;14.07;;;;;;;;;;5033203;28;20536;-45
2023/04/16 13:44:59;;;;;;;17.40;13.97;;;;;;;;;;5035389;28;20634;-46
2023/04/16 13:47:25;;;;;;;19.80;15.10;;;;;;;;;;5036830;28;20389;-45
2023/04/16 13:49:51;;;;;;;19.87;15.63;;;;;;;;;;5026845;28;20464;-46
2023/04/16 13:52:17;;;;;;;18.43;15.07;;;;;;;;;;5032025;28;20453;-46
2023/04/16 13:54:43;;;;;;;20.73;15.57;;;;;;;;;;5032940;28;20382;-45
2023/04/16 13:57:09;;;;;;;19.30;13.63;;;;;;;;;;5032395;28;20440;-45
2023/04/16 13:59:35;;;;;;;17.90;13.80;;;;;;;;;;5033782;28;20407;-46
2023/04/16 14:02:02;;;;;;;19.03;13.43;;;;;;;;;;5032766;28;20414;-46
2023/04/16 14:04:28;;;;;;;16.33;13.87;;;;;;;;;;5033639;28;20878;-46
2023/04/16 14:06:54;;;;;;;17.17;13.10;;;;;;;;;;5031551;28;20488;-46
2023/04/16 14:09:20;;;;;;;18.63;14.53;;;;;;;;;;5034283;28;20465;-45
2023/04/16 14:11:46;;;;;;;17.50;12.90;;;;;;;;;;5036859;28;20454;-45